Upstream stations:
Downstream station:
SHEF ID: BRIO2 Canadian River at Bridgeport, OK
STATION TYPE:
Regulating: Stage = 15.00, Flow = 8545
STAGE RIV-FLOW
ft cfs
Ccp-Rev Ccp-Rev
(US/Central)
05/22 00:00 12.57 2146
05/22 01:00 12.57 2146
05/22 02:00 12.54 2103
05/22 03:00 12.52 2074
05/22 04:00 12.50 2046
05/22 05:00 12.47 2004
05/22 06:00 12.48 2018
05/22 07:00 13.12 3055
05/22 08:00 13.14 3092
05/22 09:00 13.14 3092
05/22 10:00 13.12 3055
05/22 11:00 13.00 2838
05/22 12:00 12.95 2750
05/22 13:00 12.92 2699
05/22 14:00 12.87 2615
05/22 15:00 12.86 2598
05/22 16:00 12.85 2581
05/22 17:00 12.84 2565
05/22 18:00 12.83 2548
05/22 19:00 12.80 2500
05/22 20:00 12.71 2357
05/22 21:00 12.65 2265
05/22 22:00 9.63 69
05/22 23:00 ---- ----